Olivia, Minnesota
Current Conditions -  °F | °C
As of 4:54 PM on Thursday 20 Nov 2014 (Local Time) from KOVL Reporting Station
Clear Clear  
Wind Chill: 12°   Ceiling: Unl
Heat Index: 12°   Visibility: 10mi
Dew Point:   Wind: 3mph
Humidity: 73%   Direction: 310°NW
Pressure: 30.19"   Gusts: NA
Location:  44.78°N, 94.99°W
Report Text: KOVL 202254Z AUTO 31003KT 10SM CLR M11/M15 A3019 RMK AO2
Loading
Personal Weather Stations






























Interactive Weather Map New forecast layout! Learn more

10-Day Weather Forecast

Advertisements
Track Severe Weather on mobile